createdAt,value
2023-05-06T00:01:34.250Z,95318.84
2023-05-06T00:04:00.858Z,95313.31
2023-05-06T00:06:28.862Z,95304.53
2023-05-06T00:08:55.416Z,95309.63
2023-05-06T00:11:21.989Z,95310.28
2023-05-06T00:13:48.970Z,95309.66
2023-05-06T00:16:15.766Z,95303.31
2023-05-06T00:18:42.360Z,95305.97
2023-05-06T00:21:08.884Z,95310.06
2023-05-06T00:23:35.453Z,95303.97
2023-05-06T00:26:02.338Z,95305.78
2023-05-06T00:28:29.013Z,95308.44
2023-05-06T00:30:55.554Z,95303.09
2023-05-06T00:33:22.143Z,95306.97
2023-05-06T00:35:49.021Z,95303.31
2023-05-06T00:38:15.597Z,95299.22
2023-05-06T00:40:42.693Z,95304.72
2023-05-06T00:43:09.353Z,95293.66
2023-05-06T00:45:36.808Z,95287.09
2023-05-06T00:48:05.216Z,95288.34
2023-05-06T00:50:34.388Z,95287.91
2023-05-06T00:53:03.558Z,95294.03
2023-05-06T00:55:31.304Z,95291.78
2023-05-06T00:57:58.645Z,95289.47
2023-05-06T01:00:25.567Z,95286.59
2023-05-06T01:02:52.311Z,95280.91
2023-05-06T01:05:23.661Z,95290.69
2023-05-06T01:08:06.772Z,95286.81
2023-05-06T01:10:57.620Z,95291.69
2023-05-06T01:13:48.991Z,95293.72
2023-05-06T01:16:20.049Z,95299.56
2023-05-06T01:18:49.409Z,95295.66
2023-05-06T01:21:18.569Z,95289.28
2023-05-06T01:23:52.693Z,95288.69
2023-05-06T01:26:19.449Z,95283.97
2023-05-06T01:28:46.022Z,95286.09
2023-05-06T01:31:16.723Z,95285.09
2023-05-06T01:34:08.194Z,95283.06
2023-05-06T01:36:43.598Z,95292.69
2023-05-06T01:39:17.335Z,95290.97
2023-05-06T01:41:47.057Z,95284.66
2023-05-06T01:44:14.967Z,95286.88
2023-05-06T01:46:44.376Z,95286.47
2023-05-06T01:49:15.805Z,95288.16
2023-05-06T01:51:51.294Z,95289.19
2023-05-06T01:54:18.158Z,95285.66
2023-05-06T01:56:45.024Z,95298.28
2023-05-06T01:59:11.590Z,95297.47
2023-05-06T02:01:38.168Z,95290.19
2023-05-06T02:04:07.093Z,95290.19
2023-05-06T02:06:34.128Z,95293.78
2023-05-06T02:09:00.688Z,95289.53
2023-05-06T02:11:27.370Z,95291.31
2023-05-06T02:14:01.929Z,95292.69
2023-05-06T02:16:30.197Z,95293.78
2023-05-06T02:18:56.880Z,95293.59
2023-05-06T02:21:23.657Z,95299.72
2023-05-06T02:23:50.602Z,95291.69
2023-05-06T02:26:17.510Z,95298.38
2023-05-06T02:28:44.139Z,95297.28
2023-05-06T02:31:16.081Z,95298.25
2023-05-06T02:33:43.415Z,95296.22
2023-05-06T02:36:11.215Z,95294.59
2023-05-06T02:38:37.719Z,95300.53
2023-05-06T02:41:04.258Z,95293.41
2023-05-06T02:43:30.819Z,95294.78
2023-05-06T02:45:58.249Z,95292.38
2023-05-06T02:48:25.731Z,95289.16
2023-05-06T02:50:52.238Z,95282.16
2023-05-06T02:53:18.778Z,95286.84
2023-05-06T02:55:45.646Z,95283.53
2023-05-06T02:58:12.193Z,95282.19
2023-05-06T03:00:38.740Z,95272.03
2023-05-06T03:03:05.427Z,95276.56
2023-05-06T03:05:31.969Z,95275.38
2023-05-06T03:07:58.791Z,95278.84
2023-05-06T03:10:25.484Z,95281.72
2023-05-06T03:12:52.059Z,95273.22
2023-05-06T03:15:18.834Z,95277.81
2023-05-06T03:17:47.061Z,95272.50
2023-05-06T03:20:13.810Z,95274.06
2023-05-06T03:22:45.954Z,95272.59
2023-05-06T03:25:12.703Z,95266.13
2023-05-06T03:27:41.014Z,95271.56
2023-05-06T03:30:15.383Z,95269.53
2023-05-06T03:32:42.748Z,95267.84
2023-05-06T03:35:12.152Z,95274.53
2023-05-06T03:37:41.374Z,95269.91
2023-05-06T03:40:09.183Z,95272.16
2023-05-06T03:42:35.817Z,95273.59
2023-05-06T03:45:03.084Z,95271.84
2023-05-06T03:47:32.138Z,95269.25
2023-05-06T03:49:59.233Z,95268.88
2023-05-06T03:52:25.995Z,95266.41
2023-05-06T03:54:52.728Z,95260.31
2023-05-06T03:57:19.240Z,95256.44
2023-05-06T03:59:45.783Z,95256.84
2023-05-06T04:02:12.567Z,95257.44
2023-05-06T04:04:40.232Z,95261.66
2023-05-06T04:07:06.772Z,95267.53
2023-05-06T04:09:33.414Z,95269.38
2023-05-06T04:12:03.387Z,95264.53
2023-05-06T04:14:31.281Z,95274.44
2023-05-06T04:16:58.446Z,95277.69
2023-05-06T04:19:24.992Z,95283.41
2023-05-06T04:21:52.026Z,95289.09
2023-05-06T04:24:19.810Z,95291.13
2023-05-06T04:26:46.533Z,95285.25
2023-05-06T04:29:13.820Z,95291.72
2023-05-06T04:31:49.004Z,95294.16
2023-05-06T04:34:18.040Z,95285.47
2023-05-06T04:36:45.927Z,95295.81
2023-05-06T04:39:48.673Z,95296.91
2023-05-06T04:42:16.229Z,95306.88
2023-05-06T04:44:50.172Z,95308.25
2023-05-06T04:47:20.382Z,95309.28
2023-05-06T04:49:50.221Z,95313.91
2023-05-06T04:52:16.915Z,95304.38
2023-05-06T04:54:45.480Z,95317.72
2023-05-06T04:57:12.521Z,95320.81
2023-05-06T04:59:42.496Z,95316.59
2023-05-06T05:02:09.137Z,95318.47
2023-05-06T05:04:36.379Z,95322.81
2023-05-06T05:07:03.040Z,95320.84
2023-05-06T05:09:31.233Z,95321.09
2023-05-06T05:11:58.151Z,95322.97
2023-05-06T05:14:24.678Z,95318.94
2023-05-06T05:16:51.822Z,95321.59
2023-05-06T05:19:18.419Z,95323.88
2023-05-06T05:21:45.234Z,95333.09
2023-05-06T05:24:12.999Z,95330.44
2023-05-06T05:26:40.225Z,95332.88
2023-05-06T05:29:06.823Z,95330.28
2023-05-06T05:31:34.270Z,95336.16
2023-05-06T05:34:01.623Z,95334.31
2023-05-06T05:36:28.505Z,95340.91
2023-05-06T05:38:57.575Z,95332.94
2023-05-06T05:41:26.686Z,95343.16
2023-05-06T05:43:54.480Z,95339.25
2023-05-06T05:46:21.401Z,95346.19
2023-05-06T05:48:49.423Z,95345.00
2023-05-06T05:51:17.923Z,95342.97
2023-05-06T05:53:45.566Z,95338.84
2023-05-06T05:56:13.267Z,95335.44
2023-05-06T05:58:41.749Z,95338.50
2023-05-06T06:01:08.973Z,95346.66
2023-05-06T06:03:36.436Z,95343.81
2023-05-06T06:06:05.414Z,95339.13
2023-05-06T06:08:33.110Z,95337.91
2023-05-06T06:11:00.974Z,95339.31
2023-05-06T06:13:34.253Z,95343.00
2023-05-06T06:16:01.008Z,95344.44
2023-05-06T06:18:27.683Z,95356.31
2023-05-06T06:20:54.244Z,95355.09
2023-05-06T06:23:21.582Z,95362.44
2023-05-06T06:25:48.175Z,95361.03
2023-05-06T06:28:15.493Z,95361.03
2023-05-06T06:30:43.365Z,95361.44
2023-05-06T06:33:09.975Z,95368.00
2023-05-06T06:35:36.609Z,95362.44
2023-05-06T06:38:03.211Z,95369.81
2023-05-06T06:40:30.303Z,95364.50
2023-05-06T06:42:56.828Z,95368.97
2023-05-06T06:45:42.120Z,95371.59
2023-05-06T06:48:08.714Z,95369.81
2023-05-06T06:50:35.370Z,95376.34
2023-05-06T06:53:03.596Z,95378.81
2023-05-06T06:55:31.394Z,95383.09
2023-05-06T06:57:57.914Z,95382.69
2023-05-06T07:00:24.577Z,95384.91
2023-05-06T07:02:51.111Z,95379.19
2023-05-06T07:05:18.296Z,95377.38
2023-05-06T07:07:44.920Z,95376.75
2023-05-06T07:10:11.594Z,95380.22
2023-05-06T07:12:38.179Z,95376.31
2023-05-06T07:15:06.829Z,95375.09
2023-05-06T07:17:33.691Z,95375.94
2023-05-06T07:20:00.760Z,95376.13
2023-05-06T07:22:28.920Z,95377.53
2023-05-06T07:24:55.731Z,95377.03
2023-05-06T07:27:22.330Z,95383.19
2023-05-06T07:29:49.106Z,95380.25
2023-05-06T07:32:15.872Z,95380.72
2023-05-06T07:34:42.531Z,95388.47
2023-05-06T07:37:09.080Z,95392.31
2023-05-06T07:39:35.825Z,95401.06
2023-05-06T07:42:02.354Z,95394.31
2023-05-06T07:44:28.886Z,95391.72
2023-05-06T07:46:55.851Z,95399.00
2023-05-06T07:49:22.550Z,95398.19
2023-05-06T07:51:49.063Z,95402.03
2023-05-06T07:54:15.745Z,95400.81
2023-05-06T07:56:43.908Z,95410.06
2023-05-06T07:59:10.436Z,95419.69
2023-05-06T08:01:36.983Z,95402.47
2023-05-06T08:04:03.751Z,95415.16
2023-05-06T08:06:30.418Z,95414.28
2023-05-06T08:08:56.934Z,95421.84
2023-05-06T08:11:23.628Z,95418.53
2023-05-06T08:13:50.266Z,95420.53
2023-05-06T08:16:17.172Z,95423.69
2023-05-06T08:18:43.731Z,95436.28
2023-05-06T08:21:10.961Z,95430.91
2023-05-06T08:23:37.775Z,95421.44
2023-05-06T08:26:04.409Z,95420.88
2023-05-06T08:28:31.529Z,95424.25
2023-05-06T08:30:58.033Z,95418.63
2023-05-06T08:33:24.605Z,95422.28
2023-05-06T08:35:52.132Z,95418.38
2023-05-06T08:38:18.736Z,95417.38
2023-05-06T08:40:45.470Z,95424.38
2023-05-06T08:43:19.892Z,95428.59
2023-05-06T08:45:46.473Z,95432.75
2023-05-06T08:48:13.210Z,95437.47
2023-05-06T08:50:43.168Z,95426.22
2023-05-06T08:53:13.624Z,95429.38
2023-05-06T08:55:43.539Z,95427.28
2023-05-06T08:58:13.472Z,95430.22
2023-05-06T09:00:40.240Z,95423.22
2023-05-06T09:03:06.955Z,95425.09
2023-05-06T09:05:33.711Z,95425.44
2023-05-06T09:08:00.348Z,95428.66
2023-05-06T09:10:31.855Z,95420.81
2023-05-06T09:12:58.388Z,95418.38
2023-05-06T09:15:28.508Z,95417.31
2023-05-06T09:17:56.040Z,95413.53
2023-05-06T09:20:22.688Z,95420.13
2023-05-06T09:22:49.354Z,95402.47
2023-05-06T09:25:16.285Z,95408.47
2023-05-06T09:27:42.859Z,95406.38
2023-05-06T09:30:14.370Z,95418.13
2023-05-06T09:32:41.868Z,95417.91
2023-05-06T09:35:09.912Z,95427.59
2023-05-06T09:37:36.661Z,95420.22
2023-05-06T09:40:03.485Z,95405.78
2023-05-06T09:42:30.780Z,95410.56
2023-05-06T09:45:01.642Z,95408.69
2023-05-06T09:47:34.670Z,95400.81
2023-05-06T09:50:02.653Z,95405.88
2023-05-06T09:52:29.874Z,95402.69
2023-05-06T09:54:57.340Z,95410.88
2023-05-06T09:57:23.987Z,95404.78
2023-05-06T09:59:53.753Z,95398.38
2023-05-06T10:02:22.466Z,95397.59
2023-05-06T10:04:49.697Z,95399.81
2023-05-06T10:07:22.569Z,95403.91
2023-05-06T10:09:50.691Z,95399.00
2023-05-06T10:12:18.699Z,95398.38
2023-05-06T10:14:45.265Z,95394.50
2023-05-06T10:17:13.742Z,95392.78
2023-05-06T10:19:44.767Z,95401.09
2023-05-06T10:22:41.296Z,95396.91
2023-05-06T10:25:17.366Z,95390.91
2023-05-06T10:27:45.174Z,95383.97
2023-05-06T10:30:14.844Z,95384.91
2023-05-06T10:32:43.421Z,95376.66
2023-05-06T10:35:35.784Z,95373.69
2023-05-06T10:38:05.214Z,95377.03
2023-05-06T10:40:32.146Z,95380.22
2023-05-06T10:43:21.213Z,95366.66
2023-05-06T10:46:11.161Z,95356.41
2023-05-06T10:49:06.210Z,95357.47
2023-05-06T10:51:33.930Z,95354.78
2023-05-06T10:54:08.263Z,95354.78
2023-05-06T10:56:36.148Z,95353.53
2023-05-06T10:59:08.346Z,95358.09
2023-05-06T11:01:40.039Z,95349.63
2023-05-06T11:04:12.034Z,95343.88
2023-05-06T11:06:46.133Z,95334.78
2023-05-06T11:09:17.888Z,95330.72
2023-05-06T11:12:02.574Z,95325.75
2023-05-06T11:14:31.241Z,95339.06
2023-05-06T11:16:59.568Z,95339.69
2023-05-06T11:19:33.988Z,95334.09
2023-05-06T11:22:03.663Z,95336.69
2023-05-06T11:24:40.193Z,95329.97
2023-05-06T11:27:07.445Z,95340.56
2023-05-06T11:29:33.992Z,95340.00
2023-05-06T11:32:00.764Z,95339.78
2023-05-06T11:34:31.813Z,95336.44
2023-05-06T11:37:00.643Z,95338.28
2023-05-06T11:39:36.626Z,95328.25
2023-05-06T11:42:07.367Z,95331.38
2023-05-06T11:44:35.744Z,95331.31
2023-05-06T11:47:05.902Z,95325.72
2023-05-06T11:49:42.761Z,95326.72
2023-05-06T11:52:10.679Z,95325.56
2023-05-06T11:54:42.302Z,95324.19
2023-05-06T11:57:09.963Z,95318.22
2023-05-06T11:59:40.875Z,95313.84
2023-05-06T12:02:10.237Z,95315.09
2023-05-06T12:04:42.738Z,95318.16
2023-05-06T12:07:14.068Z,95321.78
2023-05-06T12:09:43.357Z,95315.50
2023-05-06T12:12:11.019Z,95325.03
2023-05-06T12:14:38.711Z,95314.50
2023-05-06T12:17:05.651Z,95311.47
2023-05-06T12:19:32.834Z,95319.88
2023-05-06T12:22:18.898Z,95309.59
2023-05-06T12:24:46.783Z,95309.63
2023-05-06T12:27:13.403Z,95306.84
2023-05-06T12:29:40.319Z,95301.63
2023-05-06T12:32:09.465Z,95294.38
2023-05-06T12:34:40.306Z,95297.78
2023-05-06T12:37:08.505Z,95301.75
2023-05-06T12:39:39.319Z,95297.44
2023-05-06T12:42:06.638Z,95290.28
2023-05-06T12:44:36.154Z,95297.50
2023-05-06T12:47:07.309Z,95294.06
2023-05-06T12:49:51.328Z,95299.28
2023-05-06T12:52:19.206Z,95298.66
2023-05-06T12:54:46.179Z,95302.16
2023-05-06T12:57:13.092Z,95298.66
2023-05-06T12:59:39.807Z,95295.09
2023-05-06T13:02:06.873Z,95291.97
2023-05-06T13:04:33.422Z,95288.19
2023-05-06T13:07:00.051Z,95281.88
2023-05-06T13:09:26.797Z,95276.09
2023-05-06T13:11:57.207Z,95276.59
2023-05-06T13:14:23.875Z,95273.25
2023-05-06T13:16:51.200Z,95269.44
2023-05-06T13:19:31.457Z,95263.53
2023-05-06T13:22:08.328Z,95266.59
2023-05-06T13:24:34.933Z,95265.78
2023-05-06T13:27:02.137Z,95264.75
2023-05-06T13:29:29.679Z,95261.72
2023-05-06T13:31:56.454Z,95272.22
2023-05-06T13:34:23.047Z,95258.44
2023-05-06T13:36:50.674Z,95257.44
2023-05-06T13:39:17.254Z,95261.91
2023-05-06T13:41:46.537Z,95266.13
2023-05-06T13:44:13.846Z,95249.41
2023-05-06T13:46:40.438Z,95238.31
2023-05-06T13:49:06.968Z,95240.31
2023-05-06T13:51:34.507Z,95241.44
2023-05-06T13:54:02.177Z,95247.94
2023-05-06T13:56:28.700Z,95238.75
2023-05-06T13:58:55.371Z,95239.25
2023-05-06T14:01:22.801Z,95226.28
2023-05-06T14:03:49.345Z,95231.19
2023-05-06T14:06:16.253Z,95227.63
2023-05-06T14:08:42.961Z,95236.63
2023-05-06T14:11:12.386Z,95224.16
2023-05-06T14:13:39.790Z,95230.91
2023-05-06T14:16:06.888Z,95226.81
2023-05-06T14:18:33.843Z,95229.59
2023-05-06T14:21:00.456Z,95229.03
2023-05-06T14:23:26.962Z,95229.84
2023-05-06T14:25:53.495Z,95227.31
2023-05-06T14:28:20.156Z,95229.56
2023-05-06T14:30:47.477Z,95216.84
2023-05-06T14:33:13.993Z,95220.00
2023-05-06T14:35:42.182Z,95224.72
2023-05-06T14:38:09.636Z,95212.63
2023-05-06T14:40:36.904Z,95216.44
2023-05-06T14:43:04.053Z,95222.94
2023-05-06T14:45:30.946Z,95209.38
2023-05-06T14:47:57.627Z,95216.94
2023-05-06T14:50:24.160Z,95213.31
2023-05-06T14:52:51.024Z,95212.25
2023-05-06T14:55:18.023Z,95215.97
2023-05-06T14:57:44.574Z,95213.19
2023-05-06T15:00:14.567Z,95214.09
2023-05-06T15:02:41.984Z,95205.31
2023-05-06T15:05:10.102Z,95206.41
2023-05-06T15:07:36.904Z,95209.66
2023-05-06T15:10:04.119Z,95205.38
2023-05-06T15:12:30.954Z,95204.78
2023-05-06T15:14:57.586Z,95205.78
2023-05-06T15:17:24.724Z,95204.25
2023-05-06T15:19:51.529Z,95207.88
2023-05-06T15:22:18.319Z,95203.22
2023-05-06T15:24:45.270Z,95201.34
2023-05-06T15:27:11.810Z,95201.91
2023-05-06T15:29:39.125Z,95205.31
2023-05-06T15:32:05.944Z,95205.34
2023-05-06T15:34:32.604Z,95201.81
2023-05-06T15:37:01.550Z,95210.06
2023-05-06T15:39:28.522Z,95218.94
2023-05-06T15:41:55.157Z,95222.41
2023-05-06T15:44:21.744Z,95214.63
2023-05-06T15:46:48.291Z,95204.31
2023-05-06T15:49:46.784Z,95205.78
2023-05-06T15:52:01.665Z,95206.56
2023-05-06T15:54:28.775Z,95208.00
2023-05-06T15:56:56.267Z,95193.47
2023-05-06T15:59:22.951Z,95203.13
2023-05-06T16:04:19.319Z,95199.47
2023-05-06T16:06:46.050Z,95198.44
2023-05-06T16:09:12.678Z,95205.53
2023-05-06T16:11:39.203Z,95198.03
2023-05-06T16:14:05.801Z,95201.22
2023-05-06T16:16:32.454Z,95197.31
2023-05-06T16:18:59.069Z,95209.50
2023-05-06T16:21:25.697Z,95210.44
2023-05-06T16:23:52.301Z,95201.56
2023-05-06T16:26:18.890Z,95204.13
2023-05-06T16:28:45.540Z,95198.81
2023-05-06T16:31:12.210Z,95200.22
2023-05-06T16:33:38.839Z,95197.19
2023-05-06T16:36:05.808Z,95194.75
2023-05-06T16:38:32.329Z,95195.22
2023-05-06T16:40:58.952Z,95190.72
2023-05-06T16:43:25.632Z,95201.53
2023-05-06T16:45:52.168Z,95197.69
2023-05-06T16:48:18.999Z,95205.97
2023-05-06T16:50:46.014Z,95202.97
2023-05-06T16:53:12.616Z,95196.34
2023-05-06T16:55:39.174Z,95198.78
2023-05-06T16:58:05.787Z,95194.59
2023-05-06T17:00:32.692Z,95190.38
2023-05-06T17:02:59.502Z,95193.66
2023-05-06T17:05:27.935Z,95186.06
2023-05-06T17:07:54.471Z,95193.47
2023-05-06T17:10:21.936Z,95187.91
2023-05-06T17:12:48.494Z,95186.59
2023-05-06T17:15:15.100Z,95187.44
2023-05-06T17:17:41.763Z,95186.88
2023-05-06T17:20:08.927Z,95189.00
2023-05-06T17:22:35.768Z,95187.38
2023-05-06T17:25:03.525Z,95182.44
2023-05-06T17:27:30.238Z,95181.81
2023-05-06T17:29:56.909Z,95187.00
2023-05-06T17:32:23.460Z,95180.28
2023-05-06T17:34:50.104Z,95182.06
2023-05-06T17:37:16.689Z,95183.59
2023-05-06T17:39:43.206Z,95194.38
2023-05-06T17:42:09.887Z,95186.56
2023-05-06T17:44:37.976Z,95192.91
2023-05-06T17:47:04.576Z,95191.75
2023-05-06T17:49:31.150Z,95194.03
2023-05-06T17:51:59.308Z,95196.06
2023-05-06T17:54:26.760Z,95203.53
2023-05-06T17:56:53.363Z,95202.13
2023-05-06T17:59:20.115Z,95206.59
2023-05-06T18:01:47.334Z,95210.50
2023-05-06T18:04:14.284Z,95205.91
2023-05-06T18:06:42.307Z,95211.34
2023-05-06T18:09:10.271Z,95214.44
2023-05-06T18:11:37.995Z,95206.25
2023-05-06T18:14:05.332Z,95211.78
2023-05-06T18:16:32.118Z,95209.75
2023-05-06T18:19:00.755Z,95218.38
2023-05-06T18:21:27.740Z,95214.78
2023-05-06T18:24:01.895Z,95208.53
2023-05-06T18:26:43.858Z,95214.22
2023-05-06T18:29:11.872Z,95211.66
2023-05-06T18:31:38.463Z,95206.91
2023-05-06T18:34:05.010Z,95212.00
2023-05-06T18:36:31.926Z,95220.97
2023-05-06T18:38:58.515Z,95220.25
2023-05-06T18:41:25.063Z,95225.72
2023-05-06T18:43:51.687Z,95219.88
2023-05-06T18:46:18.412Z,95220.22
2023-05-06T18:48:45.354Z,95228.78
2023-05-06T18:51:13.719Z,95234.25
2023-05-06T18:53:41.179Z,95230.97
2023-05-06T18:56:08.673Z,95226.91
2023-05-06T18:58:39.468Z,95229.44
2023-05-06T19:01:09.969Z,95236.25
2023-05-06T19:03:38.681Z,95234.59
2023-05-06T19:06:10.444Z,95238.03
2023-05-06T19:08:37.220Z,95233.03
2023-05-06T19:11:03.847Z,95233.13
2023-05-06T19:13:31.198Z,95241.41
2023-05-06T19:15:57.737Z,95240.81
2023-05-06T19:18:24.227Z,95235.47
2023-05-06T19:20:51.017Z,95237.19
2023-05-06T19:23:18.026Z,95236.66
2023-05-06T19:25:44.639Z,95240.09
2023-05-06T19:28:11.887Z,95235.03
2023-05-06T19:30:38.516Z,95237.28
2023-05-06T19:33:05.324Z,95232.75
2023-05-06T19:35:31.986Z,95236.78
2023-05-06T19:37:58.814Z,95241.28
2023-05-06T19:40:25.411Z,95240.19
2023-05-06T19:42:52.196Z,95238.91
2023-05-06T19:45:19.513Z,95237.72
2023-05-06T19:47:46.343Z,95237.81
2023-05-06T19:50:13.329Z,95233.75
2023-05-06T19:52:40.379Z,95244.16
2023-05-06T19:55:07.482Z,95251.44
2023-05-06T19:57:34.268Z,95246.75
2023-05-06T20:00:05.172Z,95240.84
2023-05-06T20:02:32.891Z,95250.50
2023-05-06T20:05:00.615Z,95242.38
2023-05-06T20:07:27.416Z,95237.44
2023-05-06T20:09:55.866Z,95233.19
2023-05-06T20:12:23.696Z,95236.47
2023-05-06T20:14:50.333Z,95232.06
2023-05-06T20:17:16.961Z,95243.59
2023-05-06T20:19:44.835Z,95230.47
2023-05-06T20:22:11.767Z,95223.38
2023-05-06T20:24:40.762Z,95231.81
2023-05-06T20:27:07.327Z,95229.56
2023-05-06T20:29:34.065Z,95228.56
2023-05-06T20:32:01.023Z,95230.59
2023-05-06T20:34:27.849Z,95232.22
2023-05-06T20:36:55.235Z,95232.06
2023-05-06T20:39:22.078Z,95232.50
2023-05-06T20:41:48.712Z,95228.03
2023-05-06T20:44:15.484Z,95228.22
2023-05-06T20:46:42.010Z,95234.81
2023-05-06T20:49:08.607Z,95236.88
2023-05-06T20:51:35.227Z,95232.34
2023-05-06T20:54:01.850Z,95239.72
2023-05-06T20:56:28.626Z,95242.00
2023-05-06T20:58:55.838Z,95233.69
2023-05-06T21:01:23.576Z,95235.31
2023-05-06T21:03:50.599Z,95229.06
2023-05-06T21:06:18.704Z,95245.03
2023-05-06T21:08:46.402Z,95238.50
2023-05-06T21:11:13.349Z,95241.81
2023-05-06T21:13:40.117Z,95237.16
2023-05-06T21:16:06.627Z,95232.06
2023-05-06T21:18:33.243Z,95231.06
2023-05-06T21:20:59.965Z,95224.91
2023-05-06T21:23:26.718Z,95233.09
2023-05-06T21:25:53.238Z,95229.00
2023-05-06T21:28:20.131Z,95240.09
2023-05-06T21:30:46.740Z,95238.22
2023-05-06T21:33:13.350Z,95233.38
2023-05-06T21:35:39.869Z,95238.28
2023-05-06T21:38:06.749Z,95235.59
2023-05-06T21:40:33.334Z,95242.16
2023-05-06T21:42:59.904Z,95244.22
2023-05-06T21:45:26.729Z,95234.81
2023-05-06T21:47:53.552Z,95240.97
2023-05-06T21:50:20.307Z,95235.88
2023-05-06T21:52:46.902Z,95232.41
2023-05-06T21:55:13.679Z,95235.25
2023-05-06T21:57:40.692Z,95235.25
2023-05-06T22:00:11.765Z,95230.56
2023-05-06T22:02:40.121Z,95233.09
2023-05-06T22:05:08.249Z,95236.19
2023-05-06T22:07:35.799Z,95239.84
2023-05-06T22:10:02.654Z,95237.38
2023-05-06T22:12:29.257Z,95242.50
2023-05-06T22:14:55.872Z,95241.09
2023-05-06T22:17:22.460Z,95231.69
2023-05-06T22:19:49.298Z,95234.75
2023-05-06T22:22:16.464Z,95232.09
2023-05-06T22:24:43.056Z,95226.41
2023-05-06T22:27:09.652Z,95221.72
2023-05-06T22:29:36.377Z,95225.78
2023-05-06T22:32:03.200Z,95223.34
2023-05-06T22:34:30.096Z,95227.00
2023-05-06T22:36:58.361Z,95222.94
2023-05-06T22:39:27.184Z,95220.09
2023-05-06T22:41:53.849Z,95210.91
2023-05-06T22:44:21.028Z,95213.13
2023-05-06T22:46:47.682Z,95210.91
2023-05-06T22:49:15.776Z,95214.59
2023-05-06T22:51:42.451Z,95217.84
2023-05-06T22:54:08.985Z,95213.97
2023-05-06T22:56:35.488Z,95215.81
2023-05-06T22:59:02.053Z,95208.03
2023-05-06T23:01:32.010Z,95204.38
2023-05-06T23:03:59.354Z,95212.94
2023-05-06T23:06:27.592Z,95203.94
2023-05-06T23:08:54.143Z,95206.41
2023-05-06T23:11:20.743Z,95203.34
2023-05-06T23:13:47.404Z,95205.19
2023-05-06T23:16:14.594Z,95200.72
2023-05-06T23:18:41.510Z,95198.88
2023-05-06T23:21:08.277Z,95196.22
2023-05-06T23:23:34.813Z,95191.94
2023-05-06T23:26:01.341Z,95187.22
2023-05-06T23:28:28.004Z,95194.38
2023-05-06T23:30:54.608Z,95194.00
2023-05-06T23:33:21.186Z,95193.38
2023-05-06T23:35:47.719Z,95201.53
2023-05-06T23:38:14.362Z,95198.25
2023-05-06T23:40:40.891Z,95199.91
2023-05-06T23:43:09.684Z,95199.50
2023-05-06T23:45:36.197Z,95192.16
2023-05-06T23:48:03.220Z,95188.47
2023-05-06T23:50:29.829Z,95198.88
2023-05-06T23:52:56.341Z,95207.03
2023-05-06T23:55:23.033Z,95204.00
2023-05-06T23:57:49.532Z,95203.16
